This is the latest recevied weather packets stored in our database for station/object CE3MLB. If no packets are shown the sender has not sent any weather packets the latest 10 day(s).
| Time | Temp. | Humidity | Pressure | Rain* | Wind** | Luminosity | Snow |
|---|---|---|---|---|---|---|---|
| 1777690566 | 7.78° C | 99% | 1007.8 hPa | 0 mm | - | 0 W/m² | - |
| 1777686964 | 8.89° C | 98% | 1007.8 hPa | 0 mm | - | 0 W/m² | - |
| 1777683361 | 10° C | 97% | 1007.9 hPa | 0 mm | - | 0 W/m² | - |
| 1777679759 | 11.11° C | 94% | 1008 hPa | 0 mm | - | 0 W/m² | - |
| 1777676155 | 13.33° C | 89% | 1007.7 hPa | 0 mm | - | 0 W/m² | - |
| 1777672551 | 16.67° C | 80% | 1007.3 hPa | 0 mm | - | 4 W/m² | - |
| 1777668950 | 18.89° C | 67% | 1007.5 hPa | 0 mm | - | 27 W/m² | - |
| 1777665348 | 19.44° C | 65% | 1007.6 hPa | 0 mm | - | 40 W/m² | - |
| 1777661748 | 21.11° C | 61% | 1007.5 hPa | 0 mm | - | 326 W/m² | - |
| 1777658147 | 20° C | 63% | 1007.7 hPa | 0 mm | - | 413 W/m² | - |
| 1777654543 | 18.89° C | 70% | 1008.5 hPa | 0 mm | - | 281 W/m² | - |
| 1777650941 | 16.67° C | 78% | 1008.9 hPa | 0 mm | - | 175 W/m² | - |
| 1777647337 | 15.56° C | 82% | 1008.9 hPa | 0 mm | - | 255 W/m² | - |
| 1777643736 | 13.33° C | 87% | 1008.6 hPa | 0 mm | - | 145 W/m² | - |
| 1777640135 | 11.67° C | 95% | 1008.3 hPa | 0 mm | - | 82 W/m² | - |
| 1777636535 | 10.56° C | 99% | 1008 hPa | 0 mm | - | 14 W/m² | - |
| 1777632935 | 10.56° C | 99% | 1007.6 hPa | 0 mm | - | 0 W/m² | - |
| 1777629333 | 10.56° C | 99% | 1007.1 hPa | 0 mm | - | 0 W/m² | - |
| 1777625732 | 10.56° C | 98% | 1006.6 hPa | 0 mm | - | 0 W/m² | - |
| 1777622131 | 10.56° C | 97% | 1006.4 hPa | 0 mm | - | 0 W/m² | - |
| 1777618526 | 10.56° C | 97% | 1006.2 hPa | 0 mm | - | 0 W/m² | - |
| 1777614926 | 10.56° C | 96% | 1006 hPa | 0 mm | - | 0 W/m² | - |
| 1777611327 | 10.56° C | 95% | 1006.1 hPa | 0 mm | - | 0 W/m² | - |
| 1777607725 | 11.11° C | 95% | 1005.9 hPa | 0 mm | - | 0 W/m² | - |
| 1777604125 | 11.11° C | 96% | 1005.9 hPa | 0 mm | - | 0 W/m² | - |
* Rain latest hour (hover to see other rain measurements)
** Current wind speed in m/s (hover to see current wind gust speed)